Time;durP1;ratioP1;P1;durP2;ratioP2;P2;SDS_P1;SDS_P2;PMS_P1;PMS_P2;Temp;Humidity;BMP_temperature;BMP_pressure;BME280_temperature;BME280_humidity;BME280_pressure;Samples;Min_cycle;Max_cycle;Signal;HPM_P1;HPM_P2
2022/01/24 00:01:39;;;;;;;10.63;6.82;;;1.20;99.90;;;;;;4965138;28;20043;-80
2022/01/24 00:04:08;;;;;;;12.40;6.97;;;1.20;99.90;;;;;;4948840;29;20055;-80
2022/01/24 00:06:34;;;;;;;15.20;7.35;;;1.20;99.90;;;;;;4945246;29;20036;-81
2022/01/24 00:09:05;;;;;;;12.43;7.60;;;1.10;99.90;;;;;;4944877;29;20119;-80
2022/01/24 00:12:03;;;;;;;11.82;7.40;;;1.00;99.90;;;;;;4944170;29;20032;-80
2022/01/24 00:28:05;;;;;;;14.38;8.27;;;0.80;99.90;;;;;;4945073;29;20609;-80
2022/01/24 00:30:37;;;;;;;12.43;8.07;;;0.80;99.90;;;;;;4962157;28;20042;-81
2022/01/24 00:33:08;;;;;;;15.37;8.53;;;0.90;99.90;;;;;;4963884;28;20126;-81
2022/01/24 00:35:34;;;;;;;12.75;7.65;;;0.80;99.90;;;;;;4963024;29;20027;-80
2022/01/24 00:38:02;;;;;;;14.93;8.60;;;0.70;99.90;;;;;;4962437;29;20213;-79
2022/01/24 00:40:33;;;;;;;13.63;8.27;;;0.60;99.90;;;;;;4963948;28;20027;-81
2022/01/24 00:43:00;;;;;;;16.13;9.40;;;0.50;99.90;;;;;;4962284;29;20031;-80
2022/01/24 00:45:51;;;;;;;19.83;11.13;;;0.50;99.90;;;;;;4963856;28;20054;-80
2022/01/24 00:54:42;;;;;;;20.30;10.25;;;0.40;99.90;;;;;;4927782;29;20046;-80
2022/01/24 00:56:47;;;;;;;18.38;9.90;;;0.40;99.90;;;;;;4927899;29;20062;-80
2022/01/24 00:59:13;;;;;;;16.27;8.82;;;0.30;99.90;;;;;;4911978;29;20027;-80
2022/01/24 01:01:39;;;;;;;14.65;8.45;;;0.40;99.90;;;;;;4923899;29;20167;-80
2022/01/24 01:04:05;;;;;;;18.35;9.43;;;0.40;99.90;;;;;;4921694;29;20035;-80
2022/01/24 01:06:32;;;;;;;17.10;9.10;;;0.50;99.90;;;;;;4927863;29;20215;-80
2022/01/24 01:19:57;;;;;;;15.52;9.00;;;0.30;99.90;;;;;;4947929;29;20040;-80
2022/01/24 01:22:23;;;;;;;16.50;9.63;;;0.30;99.90;;;;;;4948385;29;20052;-80
2022/01/24 01:24:53;;;;;;;15.43;9.30;;;0.30;99.90;;;;;;4947991;29;20044;-80
2022/01/24 01:27:27;;;;;;;14.98;9.10;;;0.30;99.90;;;;;;4948155;29;20035;-79
2022/01/24 01:32:40;;;;;;;16.48;9.35;;;0.20;99.90;;;;;;4931914;29;20340;-80
2022/01/24 01:56:04;;;;;;;;;;;0.10;99.90;;;;;;4966648;29;20027;-81
2022/01/24 01:58:30;;;;;;;16.83;9.65;;;0.10;99.90;;;;;;4966835;29;19906;-80
2022/01/24 02:00:58;;;;;;;17.38;9.82;;;0.10;99.90;;;;;;4965958;29;20070;-80
2022/01/24 02:03:26;;;;;;;19.90;11.25;;;0.10;99.90;;;;;;4958054;28;20039;-80
2022/01/24 02:05:52;;;;;;;21.80;12.90;;;0.10;99.90;;;;;;4946722;29;20039;-80
2022/01/24 02:08:21;;;;;;;20.45;12.05;;;0.20;99.90;;;;;;4930362;29;20444;-79
2022/01/24 02:10:46;;;;;;;;;;;0.20;99.90;;;;;;4930797;29;20079;-80
2022/01/24 02:13:12;;;;;;;16.33;10.10;;;0.10;99.90;;;;;;4929758;29;19919;-80
2022/01/24 02:18:38;;;;;;;18.98;10.32;;;0.00;99.90;;;;;;4947032;29;20325;-80
2022/01/24 02:26:04;;;;;;;19.23;11.38;;;0.10;99.90;;;;;;4946037;29;20027;-80
2022/01/24 02:28:44;;;;;;;18.80;11.32;;;0.10;99.90;;;;;;4945772;29;20035;-81
2022/01/24 02:34:18;;;;;;;18.60;10.45;;;0.10;99.90;;;;;;4941813;29;20043;-80
2022/01/24 02:36:44;;;;;;;17.02;10.15;;;0.00;99.90;;;;;;4945658;29;20107;-80
2022/01/24 02:40:01;;;;;;;19.80;10.65;;;-0.10;99.90;;;;;;4945637;29;20061;-80
2022/01/24 02:50:25;;;;;;;19.58;10.73;;;-0.20;99.90;;;;;;4944845;29;20052;-80
2022/01/24 02:52:52;;;;;;;17.98;10.23;;;-0.30;99.90;;;;;;4946463;29;20050;-79
2022/01/24 02:55:18;;;;;;;17.83;10.70;;;-0.20;99.90;;;;;;4945558;29;20020;-80
2022/01/24 02:57:44;;;;;;;19.95;11.20;;;-0.10;99.90;;;;;;4944955;29;20445;-79
2022/01/24 03:00:10;;;;;;;20.58;11.70;;;0.00;99.90;;;;;;4944412;29;20032;-81
2022/01/24 03:02:36;;;;;;;20.15;11.82;;;-0.10;99.90;;;;;;4945505;29;20038;-79
2022/01/24 03:05:02;;;;;;;23.30;12.93;;;0.00;99.90;;;;;;4945667;29;20067;-80
2022/01/24 03:07:29;;;;;;;22.60;12.40;;;0.00;99.90;;;;;;4956325;29;20024;-78
2022/01/24 03:09:56;;;;;;;20.85;12.27;;;0.20;99.90;;;;;;4957867;29;20035;-79
2022/01/24 03:12:41;;;;;;;21.48;12.05;;;0.20;99.90;;;;;;4952263;29;20031;-79
2022/01/24 03:15:08;;;;;;;20.33;11.02;;;0.20;99.90;;;;;;4944620;29;20031;-79
2022/01/24 03:17:34;;;;;;;18.83;11.05;;;0.10;99.90;;;;;;4946278;29;20258;-80
2022/01/24 03:20:00;;;;;;;20.48;10.98;;;0.00;99.90;;;;;;4928528;29;20020;-79
2022/01/24 03:22:25;;;;;;;19.90;11.43;;;0.10;99.90;;;;;;4944513;29;20055;-80
2022/01/24 03:24:51;;;;;;;18.38;11.13;;;0.00;99.90;;;;;;4944191;29;20288;-79
2022/01/24 03:27:17;;;;;;;20.13;10.88;;;0.10;99.90;;;;;;4944833;29;20075;-80
2022/01/24 03:29:43;;;;;;;17.90;10.68;;;0.00;99.90;;;;;;4945614;29;20071;-79
2022/01/24 03:32:08;;;;;;;19.52;11.40;;;0.00;99.90;;;;;;4945166;29;20054;-79
2022/01/24 03:34:34;;;;;;;23.23;11.82;;;0.00;99.90;;;;;;4944101;29;20318;-79
2022/01/24 03:37:00;;;;;;;18.73;11.05;;;0.10;99.90;;;;;;4943451;29;20037;-79
2022/01/24 03:39:26;;;;;;;20.00;10.82;;;0.00;99.90;;;;;;4945593;29;20032;-79
2022/01/24 03:41:52;;;;;;;18.08;10.75;;;0.00;99.90;;;;;;4944265;29;20028;-79
2022/01/24 03:44:19;;;;;;;19.00;11.15;;;0.00;99.90;;;;;;4927711;29;20246;-79
2022/01/24 03:47:00;;;;;;;19.80;11.48;;;0.00;99.90;;;;;;4944391;29;20303;-80
2022/01/24 03:49:45;;;;;;;17.27;10.68;;;0.00;99.90;;;;;;4928109;29;20044;-79
2022/01/24 03:52:32;;;;;;;19.40;10.85;;;0.00;99.90;;;;;;4943331;29;20039;-80
2022/01/24 03:55:00;;;;;;;16.40;9.52;;;0.00;99.90;;;;;;4943770;29;20043;-81
2022/01/24 03:57:26;;;;;;;16.90;10.07;;;-0.10;99.90;;;;;;4945242;29;20042;-79
2022/01/24 03:59:53;;;;;;;18.88;11.50;;;-0.10;99.90;;;;;;4943936;29;20079;-79
2022/01/24 04:02:22;;;;;;;17.35;10.23;;;-0.10;99.90;;;;;;4944955;29;20266;-80
2022/01/24 04:04:50;;;;;;;16.52;9.40;;;-0.10;99.90;;;;;;4944686;29;20047;-81
2022/01/24 04:07:16;;;;;;;17.40;9.98;;;-0.20;99.90;;;;;;4943355;29;20023;-80
2022/01/24 04:09:43;;;;;;;18.77;10.15;;;-0.30;99.90;;;;;;4944868;29;20103;-81
2022/01/24 04:12:11;;;;;;;14.45;9.27;;;-0.30;99.90;;;;;;4943321;29;20215;-81
2022/01/24 04:22:36;;;;;;;21.75;11.65;;;-0.30;99.90;;;;;;4943203;29;20222;-79
2022/01/24 04:25:05;;;;;;;18.70;10.38;;;-0.30;99.90;;;;;;4927177;29;20301;-79
2022/01/24 04:27:31;;;;;;;19.52;11.27;;;-0.20;99.90;;;;;;4943760;29;20023;-79
2022/01/24 04:29:57;;;;;;;22.63;11.68;;;-0.30;99.90;;;;;;4944642;29;20250;-78
2022/01/24 04:32:23;;;;;;;18.35;10.82;;;-0.30;99.90;;;;;;4943248;29;20307;-79
2022/01/24 04:34:50;;;;;;;19.23;10.57;;;-0.20;99.90;;;;;;4944694;29;20051;-79
2022/01/24 04:37:16;;;;;;;18.00;10.55;;;-0.30;99.90;;;;;;4943201;29;20043;-78
2022/01/24 04:39:44;;;;;;;18.95;11.23;;;-0.40;99.90;;;;;;4943408;29;20030;-79
2022/01/24 04:42:15;;;;;;;17.23;10.20;;;-0.50;99.90;;;;;;4942915;29;20078;-79
2022/01/24 04:47:38;;;;;;;21.60;10.98;;;-0.40;99.90;;;;;;4945159;29;20040;-79
2022/01/24 04:53:00;;;;;;;17.63;9.98;;;-0.40;99.90;;;;;;4948603;29;20310;-80
2022/01/24 04:55:26;;;;;;;21.80;11.63;;;-0.40;99.90;;;;;;4946971;29;20035;-81
2022/01/24 04:57:52;;;;;;;17.70;10.18;;;-0.50;99.90;;;;;;4949007;29;20035;-80
2022/01/24 05:00:18;;;;;;;17.90;10.18;;;-0.40;99.90;;;;;;4948313;29;20059;-81
2022/01/24 05:02:44;;;;;;;18.25;11.00;;;-0.40;99.90;;;;;;4951259;29;20031;-81
2022/01/24 05:05:14;;;;;;;19.98;10.65;;;-0.40;99.90;;;;;;4966992;29;20039;-81
2022/01/24 05:07:40;;;;;;;18.45;10.60;;;-0.40;99.90;;;;;;4967269;29;20031;-80
2022/01/24 05:10:23;;;;;;;18.70;10.27;;;-0.40;99.90;;;;;;4966789;29;20030;-80
2022/01/24 05:23:51;;;;;;;19.00;10.18;;;-0.40;99.90;;;;;;4926664;29;20059;-80
2022/01/24 05:26:17;;;;;;;17.27;10.23;;;-0.40;99.90;;;;;;4926346;29;20040;-79
2022/01/24 05:28:43;;;;;;;18.33;10.52;;;-0.50;99.90;;;;;;4945421;29;20047;-80
2022/01/24 05:31:09;;;;;;;17.75;10.10;;;-0.50;99.90;;;;;;4965531;29;20067;-81
2022/01/24 05:33:34;;;;;;;17.85;10.07;;;-0.50;99.90;;;;;;4966387;29;20027;-80
2022/01/24 05:36:00;;;;;;;21.95;10.88;;;-0.60;99.90;;;;;;4965614;29;20074;-78
2022/01/24 05:38:32;;;;;;;19.05;10.63;;;-0.50;99.90;;;;;;4965198;29;20035;-79
2022/01/24 05:41:01;;;;;;;20.25;10.88;;;-0.60;99.90;;;;;;4965763;29;20054;-80
2022/01/24 05:43:30;;;;;;;17.52;10.55;;;-0.70;99.90;;;;;;4966202;29;20036;-79
2022/01/24 05:46:02;;;;;;;20.98;11.93;;;-0.60;99.90;;;;;;4950082;29;20027;-80
2022/01/24 05:49:21;;;;;;;18.52;10.43;;;-0.50;99.90;;;;;;4966131;29;20023;-79
2022/01/24 05:51:47;;;;;;;18.60;10.77;;;-0.40;99.90;;;;;;4933604;29;20027;-82
2022/01/24 05:54:13;;;;;;;22.05;12.10;;;-0.40;99.90;;;;;;4948973;29;20046;-80
2022/01/24 05:56:39;;;;;;;23.25;12.82;;;-0.30;99.90;;;;;;4949762;29;20031;-79
2022/01/24 05:59:04;;;;;;;25.20;13.35;;;-0.30;99.90;;;;;;4949410;29;20043;-80
2022/01/24 06:01:30;;;;;;;24.15;11.80;;;-0.30;99.90;;;;;;4962243;28;20246;-80
2022/01/24 06:03:57;;;;;;;25.08;13.60;;;-0.20;99.90;;;;;;4940170;29;20115;-80
2022/01/24 06:10:53;;;;;;;;;;;-0.20;99.90;;;;;;4877598;29;20032;-80
2022/01/24 06:13:17;;;;;;;21.80;12.32;;;-0.20;99.90;;;;;;4887855;29;19923;-81
2022/01/24 06:15:48;;;;;;;23.08;12.70;;;-0.20;99.90;;;;;;4872776;29;20127;-79
2022/01/24 06:18:14;;;;;;;21.13;12.25;;;-0.30;99.90;;;;;;4872760;29;20041;-81
2022/01/24 06:20:40;;;;;;;20.02;12.05;;;-0.30;99.90;;;;;;4873539;29;20049;-81
2022/01/24 06:23:06;;;;;;;23.38;11.98;;;-0.40;99.90;;;;;;4867422;29;20032;-78
2022/01/24 06:25:34;;;;;;;20.67;12.00;;;-0.30;99.90;;;;;;4897847;29;20064;-80
2022/01/24 06:28:07;;;;;;;25.80;14.20;;;-0.20;99.90;;;;;;4877779;29;20024;-80
2022/01/24 06:30:36;;;;;;;23.10;13.27;;;-0.20;99.90;;;;;;4872877;29;20043;-80
2022/01/24 06:33:10;;;;;;;;;;;0.00;99.90;;;;;;4873381;29;20120;-82
2022/01/24 06:35:36;;;;;;;21.83;13.32;;;0.20;99.90;;;;;;4872883;29;19907;-79
2022/01/24 06:38:02;;;;;;;24.95;13.60;;;0.20;99.90;;;;;;4856740;29;20117;-80
2022/01/24 06:40:31;;;;;;;22.02;12.88;;;0.30;99.90;;;;;;4887668;29;20095;-80
2022/01/24 06:42:58;;;;;;;23.13;13.43;;;0.60;99.90;;;;;;4856785;29;20300;-79
2022/01/24 06:45:26;;;;;;;24.38;13.25;;;0.70;99.90;;;;;;4902649;29;20035;-79
2022/01/24 06:47:52;;;;;;;21.27;12.18;;;0.80;99.90;;;;;;4948502;29;20039;-80
2022/01/24 06:50:18;;;;;;;25.75;13.77;;;0.90;99.90;;;;;;4955894;29;20057;-81
2022/01/24 06:52:48;;;;;;;22.83;12.80;;;1.00;99.90;;;;;;4948230;29;20120;-79
2022/01/24 06:55:14;;;;;;;23.77;13.10;;;1.10;99.90;;;;;;4948235;29;20111;-79
2022/01/24 06:57:55;;;;;;;19.63;12.35;;;1.10;99.90;;;;;;4964379;29;20324;-80
2022/01/24 07:00:55;;;;;;;19.63;11.50;;;1.20;99.90;;;;;;4964342;28;21199;-81
2022/01/24 07:03:21;;;;;;;24.98;12.48;;;1.20;99.90;;;;;;4940174;29;20334;-79
2022/01/24 07:06:18;;;;;;;19.17;12.27;;;1.20;99.90;;;;;;4947004;29;20027;-81
2022/01/24 07:08:44;;;;;;;19.60;11.70;;;1.20;99.90;;;;;;4944975;29;20028;-80
2022/01/24 07:11:12;;;;;;;19.77;11.25;;;1.20;99.90;;;;;;4944297;29;20226;-83
2022/01/24 07:13:38;;;;;;;;;;;1.30;99.90;;;;;;4962206;29;20035;-82
2022/01/24 07:16:09;;;;;;;18.83;9.98;;;1.30;99.90;;;;;;4927175;28;20260;-80
2022/01/24 07:21:04;;;;;;;19.45;11.10;;;1.30;99.90;;;;;;4959375;29;20030;-79
2022/01/24 07:23:33;;;;;;;18.58;11.32;;;1.40;99.90;;;;;;4964381;29;20094;-81
2022/01/24 07:26:01;;;;;;;19.40;10.95;;;1.30;99.90;;;;;;4928402;29;20111;-80
2022/01/24 07:28:27;;;;;;;20.92;11.68;;;1.30;99.90;;;;;;4944988;29;20035;-79
2022/01/24 07:31:49;;;;;;;17.15;10.00;;;1.40;99.90;;;;;;4943970;29;20051;-79
2022/01/24 07:34:17;;;;;;;17.90;10.98;;;1.40;99.90;;;;;;4961118;29;20035;-79
2022/01/24 07:36:43;;;;;;;;;;;1.60;99.90;;;;;;4945819;29;20198;-79
2022/01/24 07:39:09;;;;;;;17.90;9.60;;;1.60;99.90;;;;;;4946785;29;19907;-79
2022/01/24 07:41:42;;;;;;;18.60;9.98;;;1.70;99.90;;;;;;4943767;29;20059;-80
2022/01/24 07:44:27;;;;;;;21.38;11.93;;;1.80;99.90;;;;;;4928779;29;20110;-80
2022/01/24 07:46:53;;;;;;;18.17;10.73;;;1.80;99.90;;;;;;4944606;29;20036;-81
2022/01/24 07:49:31;;;;;;;;;;;;;;;;;;;;;
2022/01/24 07:52:49;;;;;;;20.35;10.75;;;2.00;99.90;;;;;;4944314;29;20051;-81
2022/01/24 07:55:17;;;;;;;23.42;10.63;;;1.90;99.90;;;;;;4944727;29;20075;-78
2022/01/24 07:57:43;;;;;;;;;;;1.90;99.90;;;;;;4945490;29;20071;-81
2022/01/24 08:00:11;;;;;;;19.73;9.93;;;2.00;99.90;;;;;;4944579;29;19907;-81
2022/01/24 08:02:39;;;;;;;19.00;10.15;;;2.00;99.90;;;;;;4944615;29;20091;-79
2022/01/24 08:05:07;;;;;;;21.60;11.35;;;2.20;99.90;;;;;;4945370;29;20036;-78
2022/01/24 08:07:33;;;;;;;16.75;9.75;;;2.20;99.90;;;;;;4927643;29;20040;-80
2022/01/24 08:09:58;;;;;;;19.23;10.57;;;2.20;99.90;;;;;;4944870;29;20299;-78
2022/01/24 08:12:24;;;;;;;16.73;9.95;;;2.30;99.90;;;;;;4927570;29;20051;-79
2022/01/24 08:14:50;;;;;;;15.40;9.60;;;2.30;99.90;;;;;;4927613;29;20055;-80
2022/01/24 08:17:16;;;;;;;20.05;10.88;;;2.50;99.90;;;;;;4930453;29;20050;-78
2022/01/24 08:19:42;;;;;;;22.90;10.32;;;2.50;99.90;;;;;;4927654;29;20351;-79
2022/01/24 08:22:08;;;;;;;18.45;9.98;;;2.60;99.90;;;;;;4939653;29;20027;-81
2022/01/24 08:24:34;;;;;;;16.48;9.13;;;2.70;99.90;;;;;;4946231;29;20031;-78
2022/01/24 08:26:59;;;;;;;18.08;9.40;;;2.80;99.90;;;;;;4946403;29;20043;-79
2022/01/24 08:29:25;;;;;;;15.77;9.18;;;2.90;99.90;;;;;;4948148;29;20019;-80
2022/01/24 08:31:51;;;;;;;16.08;8.93;;;3.00;99.90;;;;;;4924464;29;20318;-81
2022/01/24 08:34:18;;;;;;;13.27;8.82;;;3.10;99.90;;;;;;4947705;29;20043;-80
2022/01/24 08:36:47;;;;;;;15.68;9.48;;;3.20;99.90;;;;;;4927480;29;20095;-81
2022/01/24 08:39:13;;;;;;;18.95;9.55;;;3.30;99.90;;;;;;4933457;29;20035;-80
2022/01/24 08:42:11;;;;;;;15.25;9.55;;;3.30;99.90;;;;;;4944742;29;20024;-80
2022/01/24 08:46:58;;;;;;;16.40;9.45;;;3.50;99.90;;;;;;4925975;29;20287;-80
2022/01/24 08:49:24;;;;;;;18.35;10.30;;;3.70;99.90;;;;;;4893809;29;20044;-80
2022/01/24 08:51:50;;;;;;;17.15;9.60;;;3.80;99.90;;;;;;4931763;29;20036;-81
2022/01/24 08:54:16;;;;;;;18.00;10.63;;;3.90;99.90;;;;;;4925533;29;20035;-80
2022/01/24 08:56:46;;;;;;;18.45;9.13;;;3.90;99.90;;;;;;4925345;29;20044;-80
2022/01/24 08:59:22;;;;;;;19.10;9.93;;;4.00;99.90;;;;;;4923720;29;20058;-79
2022/01/24 09:01:48;;;;;;;18.90;9.48;;;4.00;99.90;;;;;;4924494;29;20059;-80
2022/01/24 09:04:14;;;;;;;16.60;9.07;;;4.20;99.90;;;;;;4924684;29;20108;-79
2022/01/24 09:06:40;;;;;;;20.05;9.98;;;4.30;99.90;;;;;;4939776;29;20059;-79
2022/01/24 09:09:06;;;;;;;16.88;8.55;;;4.50;99.90;;;;;;4939483;29;20032;-79
2022/01/24 09:11:34;;;;;;;18.50;9.57;;;4.70;99.90;;;;;;4939330;29;20032;-79
2022/01/24 09:14:04;;;;;;;20.55;10.52;;;4.90;99.90;;;;;;4939574;29;20130;-78
2022/01/24 09:16:30;;;;;;;17.60;9.38;;;4.70;99.90;;;;;;4923932;29;20048;-79
2022/01/24 09:18:56;;;;;;;19.17;11.15;;;4.60;99.90;;;;;;4908137;29;20094;-78
2022/01/24 09:21:23;;;;;;;20.33;11.35;;;4.50;99.90;;;;;;4939068;29;20104;-77
2022/01/24 09:23:49;;;;;;;21.05;11.27;;;4.30;99.90;;;;;;4924910;29;20083;-78
2022/01/24 09:26:16;;;;;;;20.40;11.70;;;4.20;99.90;;;;;;4923397;29;20259;-80
2022/01/24 09:28:42;;;;;;;24.63;12.05;;;4.10;99.90;;;;;;4944138;29;20043;-79
2022/01/24 09:31:08;;;;;;;19.13;11.85;;;4.10;99.90;;;;;;4943289;29;20039;-80
2022/01/24 09:33:34;;;;;;;20.92;12.20;;;4.10;99.90;;;;;;4926747;29;20329;-80
2022/01/24 09:36:01;;;;;;;21.15;11.63;;;4.00;99.90;;;;;;4946559;29;20243;-79
2022/01/24 09:38:32;;;;;;;22.20;11.55;;;4.00;99.90;;;;;;4946850;29;20070;-78
2022/01/24 09:41:00;;;;;;;23.10;13.07;;;4.10;99.90;;;;;;4947739;29;20099;-78
2022/01/24 09:43:26;;;;;;;22.73;12.25;;;4.20;99.90;;;;;;4945452;29;20182;-78
2022/01/24 09:45:52;;;;;;;19.10;12.45;;;4.20;99.90;;;;;;4943747;28;20345;-77
2022/01/24 09:48:18;;;;;;;22.75;11.98;;;4.20;99.90;;;;;;4955131;29;20142;-78
2022/01/24 09:50:50;;;;;;;23.35;13.20;;;4.30;99.90;;;;;;4943722;29;20064;-79
2022/01/24 09:53:17;;;;;;;23.83;11.93;;;4.50;99.90;;;;;;4932330;29;20023;-80
2022/01/24 09:55:46;;;;;;;24.13;13.05;;;4.60;99.90;;;;;;4961193;29;20055;-80
2022/01/24 09:58:12;;;;;;;23.90;12.35;;;4.50;99.90;;;;;;4953579;29;20030;-79
2022/01/24 10:00:39;;;;;;;20.02;11.65;;;4.50;99.90;;;;;;4923035;29;20257;-80
2022/01/24 10:03:07;;;;;;;20.33;11.45;;;4.50;99.90;;;;;;4957381;29;20207;-81
2022/01/24 10:05:37;;;;;;;18.92;11.07;;;4.50;99.90;;;;;;4954610;29;20028;-78
2022/01/24 10:08:24;;;;;;;20.33;11.73;;;4.60;99.90;;;;;;4953079;29;20032;-80
2022/01/24 10:10:54;;;;;;;23.63;11.40;;;4.70;99.90;;;;;;4954857;29;20314;-79
2022/01/24 10:16:31;;;;;;;17.92;10.90;;;4.70;99.90;;;;;;4910211;29;20028;-79
2022/01/24 10:19:10;;;;;;;17.17;10.02;;;4.80;99.90;;;;;;4910876;29;20087;-78
2022/01/24 10:21:51;;;;;;;15.88;9.90;;;5.00;99.90;;;;;;4927035;29;20220;-78
2022/01/24 10:24:26;;;;;;;15.52;9.27;;;5.00;99.90;;;;;;4910402;29;20307;-79
2022/01/24 10:27:23;;;;;;;15.95;9.75;;;5.20;99.90;;;;;;4927414;29;20107;-79
2022/01/24 10:30:07;;;;;;;15.50;10.13;;;5.30;99.90;;;;;;4911026;29;20086;-79
2022/01/24 10:32:49;;;;;;;16.10;9.20;;;5.30;99.90;;;;;;4910100;29;20040;-79
2022/01/24 10:35:39;;;;;;;15.30;9.68;;;5.40;99.90;;;;;;4927326;29;20259;-79
2022/01/24 10:38:27;;;;;;;15.23;10.07;;;5.60;99.90;;;;;;4946026;29;20099;-80
2022/01/24 10:43:35;;;;;;;13.65;8.80;;;6.00;99.90;;;;;;4945762;29;20095;-79
2022/01/24 10:46:01;;;;;;;13.77;8.30;;;6.10;99.90;;;;;;4928549;29;20032;-78
2022/01/24 10:48:34;;;;;;;13.38;8.73;;;6.20;99.90;;;;;;4929796;29;20042;-79
2022/01/24 10:51:05;;;;;;;16.33;8.38;;;6.30;99.90;;;;;;4962861;28;20090;-79
2022/01/24 10:53:37;;;;;;;15.13;8.70;;;6.60;99.90;;;;;;4947853;29;20114;-79
2022/01/24 10:56:22;;;;;;;12.60;8.57;;;7.10;99.90;;;;;;4948440;29;20027;-79
2022/01/24 10:58:48;;;;;;;12.13;7.63;;;7.50;99.90;;;;;;4948197;29;20230;-79
2022/01/24 11:01:14;;;;;;;12.77;7.75;;;8.00;99.90;;;;;;4947491;29;20035;-79
2022/01/24 11:03:40;;;;;;;11.55;7.32;;;8.60;99.90;;;;;;4944398;29;20094;-79
2022/01/24 11:06:05;;;;;;;12.98;6.85;;;9.20;99.90;;;;;;4929137;29;20043;-79
2022/01/24 11:08:31;;;;;;;12.25;7.57;;;9.90;99.90;;;;;;4945608;29;20019;-80
2022/01/24 11:10:59;;;;;;;11.98;7.25;;;10.30;99.90;;;;;;4929652;29;20031;-81
2022/01/24 11:13:31;;;;;;;12.23;7.60;;;11.00;99.90;;;;;;4913241;29;20027;-81
2022/01/24 11:16:00;;;;;;;10.75;6.60;;;11.40;99.90;;;;;;4938164;29;20298;-79
2022/01/24 11:18:26;;;;;;;10.13;6.53;;;11.80;99.90;;;;;;4926660;29;20054;-80
2022/01/24 11:21:02;;;;;;;10.48;6.50;;;12.20;99.90;;;;;;4894808;29;20032;-79
2022/01/24 11:23:40;;;;;;;10.45;6.20;;;12.70;99.70;;;;;;4895220;29;20103;-80
2022/01/24 11:26:09;;;;;;;7.75;6.13;;;13.20;98.70;;;;;;4926528;29;20230;-78
2022/01/24 11:28:35;;;;;;;;;;;13.10;98.30;;;;;;4927925;29;20316;-82
2022/01/24 11:31:35;;;;;;;10.13;6.05;;;13.60;97.20;;;;;;4910048;29;19918;-82
2022/01/24 11:34:13;;;;;;;11.45;6.22;;;14.10;96.80;;;;;;4935223;29;20043;-79
2022/01/24 11:36:42;;;;;;;11.05;6.32;;;14.70;95.90;;;;;;4938047;29;20195;-81
2022/01/24 11:39:08;;;;;;;8.68;5.78;;;15.10;95.40;;;;;;4966123;29;20054;-80
2022/01/24 11:41:37;;;;;;;6.10;4.80;;;15.40;94.20;;;;;;4949279;29;20158;-81
2022/01/24 11:44:27;;;;;;;6.65;4.85;;;15.80;93.80;;;;;;4964895;29;20309;-80
2022/01/24 11:46:56;;;;;;;6.55;4.72;;;16.40;92.70;;;;;;4962610;28;20051;-84
2022/01/24 11:49:27;;;;;;;6.20;4.78;;;16.70;91.90;;;;;;4963842;28;20047;-82
2022/01/24 11:52:14;;;;;;;6.75;4.47;;;17.60;91.00;;;;;;4936955;29;20191;-80
2022/01/24 11:57:47;;;;;;;6.93;4.03;;;17.70;90.00;;;;;;4944452;29;20028;-79
2022/01/24 12:00:15;;;;;;;6.32;3.88;;;17.80;89.00;;;;;;4927376;29;20082;-81
2022/01/24 12:02:42;;;;;;;4.50;3.40;;;17.70;87.00;;;;;;4951385;29;20031;-81
2022/01/24 12:05:20;;;;;;;5.28;4.15;;;17.40;87.80;;;;;;4930586;29;20043;-80
2022/01/24 12:07:50;;;;;;;5.80;3.72;;;17.70;86.80;;;;;;4961318;29;20023;-80
2022/01/24 12:10:26;;;;;;;4.85;3.40;;;18.40;86.00;;;;;;4946469;29;20314;-81
2022/01/24 12:13:03;;;;;;;4.55;2.90;;;19.60;84.50;;;;;;4946879;29;20027;-80
2022/01/24 12:15:40;;;;;;;5.28;3.40;;;19.80;84.10;;;;;;4930114;29;20035;-81
2022/01/24 12:18:07;;;;;;;5.00;2.80;;;19.30;80.40;;;;;;4930845;29;20257;-81
2022/01/24 12:20:35;;;;;;;7.30;3.60;;;19.70;81.40;;;;;;4919680;29;20471;-80
2022/01/24 12:23:32;;;;;;;4.75;3.05;;;20.40;78.60;;;;;;4958882;29;20285;-80
2022/01/24 12:26:13;;;;;;;4.72;2.75;;;21.10;76.50;;;;;;4924050;29;20055;-78
2022/01/24 12:28:42;;;;;;;4.55;2.83;;;20.00;75.80;;;;;;4952262;29;20154;-81
2022/01/24 12:31:28;;;;;;;5.75;2.72;;;20.50;77.50;;;;;;4945945;29;20106;-81
2022/01/24 12:33:53;;;;;;;4.55;2.88;;;20.80;74.30;;;;;;4963995;29;20031;-79
2022/01/24 12:36:50;;;;;;;4.53;2.72;;;20.80;75.00;;;;;;4958310;29;20098;-83
2022/01/24 12:39:34;;;;;;;4.25;2.55;;;22.00;74.20;;;;;;4951657;29;20043;-79
2022/01/24 12:42:17;;;;;;;4.63;2.17;;;22.50;74.90;;;;;;4946786;29;20261;-80
2022/01/24 12:47:21;;;;;;;4.40;1.73;;;22.00;69.70;;;;;;4946126;29;20110;-80
2022/01/24 12:49:50;;;;;;;4.65;2.15;;;21.90;69.70;;;;;;4949874;29;20043;-81
2022/01/24 12:52:27;;;;;;;8.27;2.20;;;22.20;69.70;;;;;;4948499;29;20055;-80
2022/01/24 12:54:59;;;;;;;5.88;2.60;;;22.80;68.60;;;;;;4948871;29;20046;-83
2022/01/24 12:57:37;;;;;;;6.50;2.17;;;21.70;68.80;;;;;;4943855;29;20063;-81
2022/01/24 13:00:17;;;;;;;7.82;2.63;;;20.90;71.90;;;;;;4942842;29;20032;-81
2022/01/24 13:02:43;;;;;;;4.03;2.15;;;20.50;71.20;;;;;;4943628;29;20048;-80
2022/01/24 13:05:12;;;;;;;5.30;2.67;;;20.00;72.60;;;;;;4943013;29;20046;-81
2022/01/24 13:07:39;;;;;;;5.60;2.65;;;19.60;72.60;;;;;;4942806;29;20016;-80
2022/01/24 13:10:11;;;;;;;4.47;2.53;;;19.30;75.10;;;;;;4960978;28;20183;-81
2022/01/24 13:12:39;;;;;;;5.07;2.03;;;19.10;72.80;;;;;;4945935;29;20027;-84
2022/01/24 13:15:11;;;;;;;5.13;2.20;;;18.50;73.30;;;;;;4946294;29;20386;-82
2022/01/24 13:23:09;;;;;;;6.22;3.53;;;17.70;78.60;;;;;;4978043;29;20032;-82
2022/01/24 13:25:37;;;;;;;7.03;2.47;;;17.70;76.30;;;;;;4978798;29;20082;-80
2022/01/24 13:28:09;;;;;;;5.93;3.07;;;17.90;75.70;;;;;;4974796;29;20195;-79
2022/01/24 13:30:41;;;;;;;8.85;2.80;;;17.10;78.60;;;;;;4965773;28;20459;-81
2022/01/24 13:33:10;;;;;;;6.90;2.83;;;16.20;78.40;;;;;;4966047;29;20138;-81
2022/01/24 13:35:41;;;;;;;6.25;2.95;;;17.00;78.30;;;;;;4966360;29;20022;-81
2022/01/24 13:38:21;;;;;;;5.60;2.28;;;17.10;79.70;;;;;;4965321;29;20369;-81
2022/01/24 13:40:54;;;;;;;3.70;2.33;;;17.10;77.00;;;;;;4964749;29;20034;-81
2022/01/24 13:43:44;;;;;;;5.45;2.50;;;16.80;77.80;;;;;;4966454;28;20031;-80
2022/01/24 13:46:30;;;;;;;4.78;2.17;;;17.00;78.60;;;;;;4963331;28;20051;-80
2022/01/24 13:49:06;;;;;;;4.40;2.30;;;16.70;79.40;;;;;;4960886;28;20180;-79
2022/01/24 13:51:48;;;;;;;5.88;2.28;;;16.20;78.70;;;;;;4941292;29;20031;-80
2022/01/24 13:54:24;;;;;;;4.38;1.92;;;16.20;79.30;;;;;;4944367;29;20063;-80
2022/01/24 13:56:53;;;;;;;5.05;2.33;;;16.20;78.10;;;;;;4965411;29;20023;-80
2022/01/24 13:59:19;;;;;;;2.83;1.77;;;15.80;80.30;;;;;;4929638;29;20036;-80
2022/01/24 14:01:59;;;;;;;5.88;2.65;;;15.40;84.40;;;;;;4945132;29;20323;-79
2022/01/24 14:04:29;;;;;;;3.47;2.10;;;15.30;81.50;;;;;;4945405;29;20349;-79
2022/01/24 14:07:06;;;;;;;3.83;2.10;;;15.10;81.40;;;;;;4966234;29;20061;-78
2022/01/24 14:09:41;;;;;;;3.80;1.83;;;15.20;81.20;;;;;;4965981;29;20076;-79
2022/01/24 14:12:16;;;;;;;7.22;2.53;;;15.40;81.10;;;;;;4964720;29;20127;-79
2022/01/24 14:14:49;;;;;;;6.35;2.20;;;16.10;81.00;;;;;;4964489;29;20031;-79
2022/01/24 14:19:43;;;;;;;6.35;2.13;;;16.90;78.90;;;;;;4944735;28;20023;-82
2022/01/24 14:22:12;;;;;;;5.28;1.85;;;17.30;79.10;;;;;;4949626;29;20034;-82
2022/01/24 14:24:49;;;;;;;5.20;1.92;;;17.00;78.90;;;;;;4948877;29;20031;-81
2022/01/24 14:27:38;;;;;;;5.50;2.30;;;16.30;82.00;;;;;;4949619;29;20302;-80
2022/01/24 14:30:19;;;;;;;9.77;2.65;;;15.40;81.10;;;;;;4947703;28;20071;-79
2022/01/24 14:33:02;;;;;;;6.68;2.88;;;15.10;81.30;;;;;;4965410;29;20031;-78
2022/01/24 14:35:30;;;;;;;5.80;2.50;;;15.00;81.90;;;;;;4948697;29;20035;-80
2022/01/24 14:37:58;;;;;;;4.57;2.20;;;14.80;83.60;;;;;;4932533;29;20046;-80
2022/01/24 14:40:35;;;;;;;4.43;2.10;;;14.90;82.00;;;;;;4948215;29;20114;-80
2022/01/24 14:45:45;;;;;;;6.22;2.50;;;14.30;84.20;;;;;;4947935;29;20350;-80
2022/01/24 14:48:12;;;;;;;7.40;2.85;;;14.10;84.50;;;;;;4948460;29;20039;-80
2022/01/24 14:50:38;;;;;;;7.28;3.15;;;14.20;84.20;;;;;;4958342;28;20059;-80
2022/01/24 14:53:07;;;;;;;6.72;2.60;;;14.00;85.60;;;;;;4964455;29;20027;-80
2022/01/24 14:55:33;;;;;;;6.25;2.65;;;14.10;87.10;;;;;;4950112;29;20027;-79
2022/01/24 14:58:45;;;;;;;4.78;2.35;;;14.20;88.60;;;;;;4967791;29;20074;-80
2022/01/24 15:01:10;;;;;;;4.65;2.50;;;15.30;85.10;;;;;;4964759;28;20341;-81
2022/01/24 15:03:37;;;;;;;5.28;2.30;;;16.40;80.90;;;;;;4955168;29;20036;-79
2022/01/24 15:06:04;;;;;;;3.88;1.80;;;16.50;82.20;;;;;;4944391;29;20043;-79
2022/01/24 15:08:33;;;;;;;5.10;1.90;;;17.20;81.00;;;;;;4944213;29;20040;-79
2022/01/24 15:11:00;;;;;;;7.28;2.13;;;16.20;82.40;;;;;;4945881;29;20059;-79
2022/01/24 15:13:33;;;;;;;6.80;1.88;;;15.60;84.80;;;;;;4944597;29;20051;-79